Flight Track Log - Related Links

Times and Time Zones

All times are in EDT time to prevent confusion due to time zone crossing. See the CPT241 flight status page for this flight to view local times or setup timezone preferences in your user account.

Time Position Orientation Groundspeed Altitude Reporting Facility
EDT Latitude Longitude Course Direction KTS MPH feet Rate Location/Type
Sun 10:58:10 AM 21.3167 -157.8833 155° Southeast 140 161 900  Level Honolulu Center
Sun 10:59:10 AM 21.2833 -157.8667 155° Southeast 150 173 2,500 1,339 Climbing Honolulu Center
Sun 11:00:11 AM 21.2333 -157.8333 148° Southeast 160 184 3,600 1,190 Climbing Honolulu Center
Sun 11:01:11 AM 21.2000 -157.8167 155° Southeast 170 196 4,900 1,200 Climbing Honolulu Center
Sun 11:02:11 AM 21.1667 -157.7833 137° Southeast 170 196 6,000 1,059 Climbing Honolulu Center
Sun 11:03:10 AM 21.1333 -157.7500 137° Southeast 180 207 7,000 1,050 Climbing Honolulu Center
Sun 11:04:11 AM 21.1000 -157.7000 126° Southeast 170 196 8,100 992 Climbing Honolulu Center
Sun 11:05:11 AM 21.0833 -157.6667 118° Southeast 180 207 9,000 800 Climbing Honolulu Center
Sun 11:06:11 AM 21.0500 -157.6167 126° Southeast 180 207 9,700 750 Climbing Honolulu Center
Sun 11:07:11 AM 21.0000 -157.5833 148° Southeast 180 207 10,500 750 Climbing Honolulu Center
Sun 11:08:11 AM 20.9833 -157.5333 110° East 190 219 11,200 700 Climbing Honolulu Center
Sun 11:09:11 AM 20.9500 -157.4833 126° Southeast 200 230 11,900 650 Climbing Honolulu Center
Sun 11:10:11 AM 20.9333 -157.4333 110° East 210 242 12,500 550 Climbing Honolulu Center
Sun 11:11:11 AM 20.9000 -157.3667 118° Southeast 210 242 13,000 248 Climbing Honolulu Center
Sun 11:12:12 AM 20.8833 -157.3167 110° East 230 265 13,000  Level Honolulu Center
Sun 11:13:12 AM 20.8500 -157.2500 118° Southeast 250 288 13,000  Level Honolulu Center
Sun 11:14:12 AM 20.8333 -157.1833 105° East 260 299 13,000  Level Honolulu Center
Sun 11:15:12 AM 20.8000 -157.1167 118° Southeast 250 288 13,000  Level Honolulu Center
Sun 11:16:12 AM 20.7667 -157.0500 118° Southeast 260 299 13,000  Level Honolulu Center
Sun 11:17:12 AM 20.7333 -156.9833 118° Southeast 250 288 13,000  Level Honolulu Center
Sun 11:18:12 AM 20.7000 -156.9167 118° Southeast 250 288 13,000  Level Honolulu Center
Sun 11:19:12 AM 20.6667 -156.8500 118° Southeast 250 288 13,000  Level Honolulu Center
Sun 11:20:13 AM 20.6333 -156.7833 118° Southeast 250 288 13,000  Level Honolulu Center
Sun 11:21:13 AM 20.6000 -156.7167 118° Southeast 250 288 13,000  Level Honolulu Center
Sun 11:22:13 AM 20.5667 -156.6500 118° Southeast 240 276 13,000  Level Honolulu Center
Sun 11:23:13 AM 20.5167 -156.6000 137° Southeast 240 276 13,000  Level Honolulu Center
Sun 11:24:13 AM 20.4667 -156.5500 137° Southeast 240 276 13,000  Level Honolulu Center
Sun 11:25:13 AM 20.4167 -156.4833 129° Southeast 240 276 13,000  Level Honolulu Center
Sun 11:26:13 AM 20.3667 -156.4333 137° Southeast 240 276 13,000  Level Honolulu Center
Sun 11:27:13 AM 20.3333 -156.4000 137° Southeast 240 276 13,000 -400 Level Honolulu Center
Sun 11:28:13 AM 20.2667 -156.3333 137° Southeast 250 288 12,200 -750 Descending Honolulu Center
Sun 11:29:13 AM 20.2333 -156.2833 125° Southeast 240 276 11,500 -700 Descending Honolulu Center
Sun 11:30:13 AM 20.1833 -156.2500 148° Southeast 220 253 10,800 -744 Descending Honolulu Center
Sun 11:31:14 AM 20.1500 -156.2000 125° Southeast 240 276 10,000 -942 Descending Honolulu Center
Sun 11:32:14 AM 20.1000 -156.1500 137° Southeast 230 265 8,900 -1,100 Descending Honolulu Center
Sun 11:33:14 AM 20.0500 -156.1000 137° Southeast 230 265 7,800 -1,000 Descending Honolulu Center
Sun 11:34:14 AM 20.0000 -156.0667 148° Southeast 210 242 6,900 -700 Descending Honolulu Center
Sun 11:35:14 AM 19.9667 -156.0167 125° Southeast 200 230 6,400 -600 Descending Honolulu Center
Sun 11:36:14 AM 19.9167 -155.9833 148° Southeast 210 242 5,700 -650 Descending Honolulu Center
Sun 11:37:14 AM 19.8833 -155.9167 118° Southeast 200 230 5,100 -400 Descending Honolulu Center
Sun 11:38:14 AM 19.9000 -155.8667 70° East 190 219 4,900 -250 Descending Honolulu Center
Sun 11:39:14 AM 19.9167 -155.8167 70° East 190 219 4,600 -298 Descending Honolulu Center
Sun 11:40:15 AM 19.9333 -155.7667 70° East 190 219 4,300 -295 Descending Honolulu Center
Sun 11:43:00 AM 19.9974 -155.6693 43° Northeast  Level FlightAware Approximate

Login

Don't have an account? Register now (free) for customized features, flight alerts, and more!